Time;durP1;ratioP1;P1;durP2;ratioP2;P2;SDS_P1;SDS_P2;PMS_P1;PMS_P2;Temp;Humidity;BMP_temperature;BMP_pressure;BME280_temperature;BME280_humidity;BME280_pressure;Samples;Min_cycle;Max_cycle;Signal;HPM_P1;HPM_P2
2021/12/13 00:02:05;;;;;;;18.98;9.77;;;0.60;99.90;;;;;;5039751;28;20538;-79
2021/12/13 00:04:47;;;;;;;16.33;9.18;;;0.70;99.90;;;;;;5038792;28;20037;-79
2021/12/13 00:07:18;;;;;;;13.75;7.93;;;0.30;99.80;;;;;;5038928;28;20108;-78
2021/12/13 00:09:49;;;;;;;17.95;9.48;;;0.60;99.80;;;;;;5038856;28;20052;-79
2021/12/13 00:12:21;;;;;;;16.08;8.77;;;0.60;99.90;;;;;;5038905;28;20466;-79
2021/12/13 00:14:52;;;;;;;15.80;8.98;;;1.30;99.90;;;;;;5038795;28;20024;-78
2021/12/13 00:17:25;;;;;;;14.23;8.55;;;0.60;99.90;;;;;;5038401;28;20471;-77
2021/12/13 00:20:04;;;;;;;17.33;8.82;;;0.50;99.90;;;;;;5038999;28;20025;-79
2021/12/13 00:22:38;;;;;;;19.10;9.48;;;0.60;99.90;;;;;;5038444;28;20024;-79
2021/12/13 00:25:07;;;;;;;16.08;9.10;;;0.60;99.90;;;;;;5038980;28;20040;-79
2021/12/13 00:27:40;;;;;;;14.38;8.20;;;0.60;99.90;;;;;;5039089;28;20025;-77
2021/12/13 00:30:31;;;;;;;13.48;8.10;;;0.60;99.90;;;;;;5039082;28;20098;-78
2021/12/13 00:33:25;;;;;;;16.38;8.13;;;0.60;99.90;;;;;;5041572;28;20025;-79
2021/12/13 00:35:57;;;;;;;15.38;8.75;;;0.60;99.90;;;;;;5041363;28;20221;-79
2021/12/13 00:38:28;;;;;;;14.35;8.15;;;-0.20;99.90;;;;;;5043075;28;20237;-79
2021/12/13 00:41:01;;;;;;;15.85;8.45;;;0.70;99.90;;;;;;5022910;28;20418;-78
2021/12/13 00:43:34;;;;;;;14.82;8.73;;;1.40;99.90;;;;;;5039152;28;20036;-78
2021/12/13 00:46:04;;;;;;;16.48;8.55;;;0.80;99.90;;;;;;5039125;28;20376;-80
2021/12/13 00:48:33;;;;;;;19.13;8.50;;;1.20;99.90;;;;;;5038813;28;20018;-77
2021/12/13 00:51:17;;;;;;;14.55;8.00;;;0.90;99.80;;;;;;5019614;28;20037;-78
2021/12/13 00:53:47;;;;;;;12.23;7.88;;;0.80;99.60;;;;;;5038315;28;20029;-79
2021/12/13 00:56:50;;;;;;;14.32;7.93;;;0.80;99.60;;;;;;5020257;28;20298;-79
2021/12/13 00:59:42;;;;;;;17.83;8.88;;;0.80;99.90;;;;;;5038728;28;20021;-78
2021/12/13 01:02:19;;;;;;;12.35;7.57;;;0.70;99.90;;;;;;5020076;28;20096;-79
2021/12/13 01:04:47;;;;;;;14.57;8.30;;;0.70;99.90;;;;;;5038331;28;20028;-79
2021/12/13 01:07:32;;;;;;;17.15;8.85;;;0.70;99.90;;;;;;5038690;28;20022;-76
2021/12/13 01:10:16;;;;;;;17.02;8.90;;;0.70;99.90;;;;;;5038645;28;20098;-78
2021/12/13 01:12:43;;;;;;;14.60;9.00;;;0.70;99.90;;;;;;5038488;28;20013;-78
2021/12/13 01:15:31;;;;;;;15.45;8.45;;;0.70;99.90;;;;;;5020747;28;20025;-79
2021/12/13 01:18:29;;;;;;;15.25;7.82;;;0.70;99.90;;;;;;5042513;28;20337;-78
2021/12/13 01:21:30;;;;;;;15.18;8.38;;;0.60;99.90;;;;;;5042191;28;20045;-78
2021/12/13 01:24:06;;;;;;;15.68;8.05;;;0.70;99.90;;;;;;5041912;28;20293;-78
2021/12/13 01:26:39;;;;;;;14.75;8.45;;;-0.30;99.60;;;;;;5041959;28;20693;-78
2021/12/13 01:29:21;;;;;;;17.52;9.40;;;0.50;99.90;;;;;;5041514;28;20040;-79
2021/12/13 01:31:52;;;;;;;14.95;9.40;;;0.70;99.90;;;;;;5041496;28;20017;-79
2021/12/13 01:34:19;;;;;;;16.52;8.88;;;0.70;99.90;;;;;;5041406;28;20049;-78
2021/12/13 01:37:02;;;;;;;20.52;8.55;;;0.60;99.90;;;;;;5042077;28;20046;-78
2021/12/13 01:39:30;;;;;;;15.82;9.43;;;0.60;99.90;;;;;;5042182;28;20052;-78
2021/12/13 01:42:03;;;;;;;18.23;10.30;;;0.70;99.90;;;;;;5042311;28;20372;-78
2021/12/13 01:44:35;;;;;;;14.50;8.60;;;0.70;99.90;;;;;;5041742;28;20056;-78
2021/12/13 01:47:07;;;;;;;19.58;9.38;;;0.90;99.90;;;;;;5023918;28;20288;-78
2021/12/13 01:49:37;;;;;;;18.77;10.35;;;0.70;99.90;;;;;;5042011;28;20028;-79
2021/12/13 01:52:18;;;;;;;20.17;10.13;;;1.60;99.90;;;;;;5041708;28;20155;-78
2021/12/13 01:54:45;;;;;;;16.95;10.27;;;0.60;99.90;;;;;;5041285;28;20322;-78
2021/12/13 01:59:55;;;;;;;19.10;10.35;;;0.70;99.90;;;;;;5041325;28;20427;-80
2021/12/13 02:02:36;;;;;;;18.45;10.50;;;0.80;99.90;;;;;;5041320;28;20361;-79
2021/12/13 02:05:11;;;;;;;17.38;10.13;;;1.10;99.90;;;;;;5041269;28;20021;-79
2021/12/13 02:07:49;;;;;;;20.67;10.00;;;0.80;99.90;;;;;;5041128;28;20033;-78
2021/12/13 02:10:19;;;;;;;22.70;10.60;;;1.10;99.90;;;;;;5040902;28;20032;-78
2021/12/13 02:12:46;;;;;;;21.45;10.85;;;0.70;99.90;;;;;;5022529;28;20696;-79
2021/12/13 02:18:01;;;;;;;20.40;10.48;;;0.80;99.90;;;;;;5040989;28;20114;-79
2021/12/13 02:20:36;;;;;;;19.02;10.23;;;0.70;99.90;;;;;;5040523;28;20036;-78
2021/12/13 02:23:03;;;;;;;16.85;9.85;;;0.70;99.90;;;;;;5022322;28;20090;-78
2021/12/13 02:25:36;;;;;;;21.65;11.40;;;0.70;99.90;;;;;;5041023;28;20029;-78
2021/12/13 02:28:01;;;;;;;19.25;10.88;;;0.80;99.90;;;;;;5040875;28;20025;-80
2021/12/13 02:30:33;;;;;;;22.30;11.02;;;0.70;99.90;;;;;;5023766;28;20025;-78
2021/12/13 02:33:00;;;;;;;19.77;10.82;;;0.70;99.90;;;;;;5046831;28;20132;-79
2021/12/13 02:35:31;;;;;;;19.88;10.55;;;0.70;99.90;;;;;;5047369;28;20475;-80
2021/12/13 02:38:01;;;;;;;23.33;12.20;;;0.70;99.90;;;;;;5047052;28;20017;-79
2021/12/13 02:40:27;;;;;;;20.40;11.73;;;0.70;99.90;;;;;;5048162;28;20110;-78
2021/12/13 02:42:54;;;;;;;22.20;10.38;;;1.90;99.90;;;;;;5044420;28;20025;-77
2021/12/13 02:45:25;;;;;;;20.52;10.63;;;1.20;99.90;;;;;;5041625;28;20124;-78
2021/12/13 02:47:58;;;;;;;19.48;11.27;;;2.00;99.90;;;;;;5040836;28;20013;-77
2021/12/13 02:50:43;;;;;;;19.02;9.80;;;0.80;99.90;;;;;;5040663;28;20527;-78
2021/12/13 02:53:10;;;;;;;17.50;9.65;;;0.80;99.90;;;;;;5039946;28;20087;-78
2021/12/13 02:55:36;;;;;;;18.83;10.75;;;0.80;99.90;;;;;;5040013;28;20025;-78
2021/12/13 02:58:05;;;;;;;19.20;9.93;;;0.70;99.90;;;;;;5040139;28;20025;-79
2021/12/13 03:00:42;;;;;;;17.15;10.63;;;0.70;99.90;;;;;;5039900;28;20024;-79
2021/12/13 03:03:14;;;;;;;17.52;10.27;;;0.70;99.90;;;;;;5021791;28;20024;-79
2021/12/13 03:05:43;;;;;;;18.20;9.77;;;0.70;99.90;;;;;;5040044;28;20095;-78
2021/12/13 03:08:32;;;;;;;18.50;10.05;;;0.80;99.90;;;;;;5039980;28;20024;-78
2021/12/13 03:11:01;;;;;;;21.33;10.73;;;0.70;99.90;;;;;;5039531;28;20719;-78
2021/12/13 03:13:30;;;;;;;19.48;10.63;;;0.70;99.90;;;;;;5039922;28;20078;-78
2021/12/13 03:16:02;;;;;;;20.70;9.88;;;0.60;99.90;;;;;;5039610;28;20105;-78
2021/12/13 03:19:06;;;;;;;18.10;8.82;;;0.70;99.90;;;;;;5020717;28;20036;-78
2021/12/13 03:21:50;;;;;;;20.10;10.30;;;0.60;99.90;;;;;;5039906;28;20515;-78
2021/12/13 03:24:34;;;;;;;17.20;10.05;;;0.60;99.90;;;;;;5039176;28;20061;-78
2021/12/13 03:27:32;;;;;;;16.70;8.90;;;0.70;99.90;;;;;;5021983;28;20104;-79
2021/12/13 03:30:00;;;;;;;15.32;9.35;;;0.60;99.90;;;;;;5039942;28;20349;-79
2021/12/13 03:32:42;;;;;;;17.10;9.50;;;1.60;99.90;;;;;;5039776;28;20534;-78
2021/12/13 03:35:08;;;;;;;15.85;8.15;;;0.90;99.90;;;;;;5040142;28;20032;-78
2021/12/13 03:37:34;;;;;;;15.23;9.20;;;1.60;99.90;;;;;;5039427;28;20384;-80
2021/12/13 03:40:21;;;;;;;16.88;8.07;;;0.70;99.90;;;;;;5038947;28;20558;-79
2021/12/13 03:42:51;;;;;;;15.10;8.85;;;0.70;99.90;;;;;;5039647;28;20151;-79
2021/12/13 03:45:45;;;;;;;15.75;8.20;;;0.60;99.90;;;;;;5039515;28;20052;-78
2021/12/13 03:48:14;;;;;;;14.05;8.07;;;0.70;99.90;;;;;;4958358;28;20073;-78
2021/12/13 03:50:45;;;;;;;11.82;7.05;;;2.60;99.90;;;;;;4958030;28;20039;-79
2021/12/13 03:53:15;;;;;;;14.57;7.55;;;0.60;99.90;;;;;;4958462;28;20292;-79
2021/12/13 03:55:46;;;;;;;14.95;8.43;;;0.60;99.90;;;;;;4961988;28;20470;-78
2021/12/13 03:58:14;;;;;;;13.10;7.93;;;0.60;99.90;;;;;;4963158;28;20023;-78
2021/12/13 04:00:45;;;;;;;15.48;8.60;;;0.60;99.90;;;;;;4947580;28;20509;-78
2021/12/13 04:03:14;;;;;;;13.63;8.48;;;-0.50;99.90;;;;;;4980844;28;20184;-78
2021/12/13 04:05:40;;;;;;;14.38;8.32;;;0.50;99.90;;;;;;4978346;28;20080;-78
2021/12/13 04:08:10;;;;;;;15.55;9.07;;;2.00;99.90;;;;;;4977470;28;20023;-79
2021/12/13 04:10:47;;;;;;;13.60;8.75;;;0.90;99.90;;;;;;4977144;28;20049;-78
2021/12/13 04:13:14;;;;;;;;;;;0.80;99.90;;;;;;4977174;28;20026;-78
2021/12/13 04:16:15;;;;;;;17.50;8.80;;;0.90;99.90;;;;;;4976722;28;19968;-78
2021/12/13 04:21:26;;;;;;;17.05;9.20;;;0.40;99.90;;;;;;4976482;28;20639;-79
2021/12/13 04:23:57;;;;;;;15.65;8.75;;;1.10;99.90;;;;;;4976577;28;20038;-78
2021/12/13 04:26:25;;;;;;;15.07;8.70;;;0.70;99.90;;;;;;5031213;28;20037;-78
2021/12/13 04:28:57;;;;;;;17.83;9.13;;;0.50;99.90;;;;;;5038890;28;20316;-79
2021/12/13 04:31:27;;;;;;;13.73;8.48;;;0.90;99.90;;;;;;5038334;28;20050;-79
2021/12/13 04:33:57;;;;;;;16.08;8.13;;;0.50;99.90;;;;;;5038655;28;20322;-78
2021/12/13 04:36:27;;;;;;;16.60;9.25;;;1.60;99.90;;;;;;5039102;28;20031;-78
2021/12/13 04:39:00;;;;;;;13.05;8.80;;;1.20;99.90;;;;;;5038531;28;20049;-78
2021/12/13 04:41:44;;;;;;;16.55;8.60;;;0.60;99.90;;;;;;5038752;28;20034;-79
2021/12/13 04:44:35;;;;;;;13.23;8.38;;;0.60;99.90;;;;;;5020835;28;20103;-78
2021/12/13 04:47:16;;;;;;;16.90;9.80;;;0.70;99.90;;;;;;5038787;28;20021;-78
2021/12/13 04:49:46;;;;;;;13.27;8.23;;;0.70;99.90;;;;;;5038484;28;20287;-79
2021/12/13 04:52:16;;;;;;;13.35;7.85;;;0.80;99.90;;;;;;5022321;28;20174;-78
2021/12/13 04:54:47;;;;;;;13.60;7.78;;;0.80;99.90;;;;;;5024129;28;20056;-79
2021/12/13 04:57:15;;;;;;;11.88;7.57;;;0.80;99.90;;;;;;5042502;28;20550;-78
2021/12/13 04:59:46;;;;;;;11.98;7.32;;;0.80;99.90;;;;;;5042881;28;20043;-78
2021/12/13 05:02:12;;;;;;;16.02;8.68;;;0.80;99.90;;;;;;5042725;28;20013;-79
2021/12/13 05:04:38;;;;;;;15.40;7.97;;;0.90;99.90;;;;;;5042326;28;20052;-79
2021/12/13 05:07:06;;;;;;;14.82;8.52;;;0.90;99.90;;;;;;5042006;28;20025;-79
2021/12/13 05:09:33;;;;;;;14.32;8.45;;;0.90;99.90;;;;;;5042703;28;20032;-78
2021/12/13 05:12:02;;;;;;;11.60;8.02;;;0.90;99.90;;;;;;5024867;28;20304;-78
2021/12/13 05:14:48;;;;;;;12.93;7.68;;;0.90;99.90;;;;;;5042260;28;20143;-78
2021/12/13 05:17:21;;;;;;;12.95;7.60;;;0.90;99.90;;;;;;5042330;28;20021;-78
2021/12/13 05:19:51;;;;;;;14.15;8.45;;;0.90;99.90;;;;;;5023919;28;20098;-79
2021/12/13 05:22:19;;;;;;;18.98;8.95;;;0.90;99.90;;;;;;5042066;28;20082;-78
2021/12/13 05:24:47;;;;;;;15.05;8.27;;;0.90;99.90;;;;;;5042287;28;20381;-79
2021/12/13 05:27:23;;;;;;;15.15;8.63;;;0.80;99.90;;;;;;5042254;28;20098;-78
2021/12/13 05:29:51;;;;;;;14.13;8.55;;;0.80;99.90;;;;;;5043126;28;20013;-79
2021/12/13 05:32:35;;;;;;;15.85;9.20;;;0.80;99.90;;;;;;5042565;28;20395;-79
2021/12/13 05:35:16;;;;;;;16.15;8.85;;;0.80;99.90;;;;;;5041918;28;20306;-79
2021/12/13 05:37:46;;;;;;;17.02;9.18;;;0.80;99.90;;;;;;5043040;28;20067;-78
2021/12/13 05:40:35;;;;;;;16.38;8.88;;;0.80;99.90;;;;;;5042493;28;20037;-78
2021/12/13 05:43:32;;;;;;;18.05;8.40;;;0.80;99.90;;;;;;5042664;28;20082;-78
2021/12/13 05:46:03;;;;;;;;;;;0.70;99.90;;;;;;5025218;28;20056;-78
2021/12/13 05:48:35;;;;;;;18.20;8.65;;;0.70;99.90;;;;;;5042893;28;19991;-79
2021/12/13 05:51:06;;;;;;;14.90;8.20;;;0.70;99.90;;;;;;5043460;28;20585;-79
2021/12/13 05:53:42;;;;;;;19.85;9.57;;;0.70;99.90;;;;;;5042432;28;20029;-78
2021/12/13 05:56:33;;;;;;;21.48;10.77;;;0.70;99.90;;;;;;5044888;28;20021;-79
2021/12/13 05:59:20;;;;;;;17.75;10.23;;;1.80;99.90;;;;;;5002636;28;20116;-77
2021/12/13 06:02:03;;;;;;;15.40;9.40;;;0.80;99.90;;;;;;5003565;28;20033;-79
2021/12/13 06:04:56;;;;;;;22.30;11.27;;;0.80;99.90;;;;;;5003747;28;20089;-79
2021/12/13 06:07:36;;;;;;;21.20;11.52;;;0.80;99.90;;;;;;5000161;28;20238;-79
2021/12/13 06:10:15;;;;;;;20.02;11.43;;;0.70;99.90;;;;;;5002365;28;20041;-80
2021/12/13 06:12:58;;;;;;;22.63;10.95;;;0.80;99.90;;;;;;5002855;28;20053;-79
2021/12/13 06:15:32;;;;;;;18.58;10.35;;;0.80;99.90;;;;;;5000929;28;20033;-78
2021/12/13 06:18:12;;;;;;;18.48;10.60;;;1.50;99.90;;;;;;5004292;28;20065;-78
2021/12/13 06:21:02;;;;;;;19.73;11.60;;;0.90;99.90;;;;;;5005852;28;20033;-78
2021/12/13 06:23:31;;;;;;;19.25;11.30;;;0.80;99.90;;;;;;5005182;28;20370;-81
2021/12/13 06:26:01;;;;;;;20.38;12.30;;;0.80;99.90;;;;;;5004800;28;20038;-78
2021/12/13 06:28:30;;;;;;;22.13;11.50;;;0.90;99.90;;;;;;5005266;28;20022;-80
2021/12/13 06:31:03;;;;;;;23.90;12.35;;;1.80;99.90;;;;;;5039061;28;20033;-78
2021/12/13 06:33:43;;;;;;;24.77;13.45;;;0.80;99.90;;;;;;5051425;28;20013;-80
2021/12/13 06:36:09;;;;;;;24.42;13.93;;;0.80;99.90;;;;;;5044870;28;20594;-77
2021/12/13 06:38:47;;;;;;;24.17;13.15;;;0.80;99.90;;;;;;5029176;28;20029;-79
2021/12/13 06:41:30;;;;;;;23.25;12.73;;;0.80;99.90;;;;;;5048865;28;20026;-78
2021/12/13 06:44:02;;;;;;;25.25;13.70;;;0.80;99.90;;;;;;5048833;28;20384;-79
2021/12/13 06:46:35;;;;;;;27.48;14.75;;;0.80;99.90;;;;;;5048509;28;20061;-78
2021/12/13 06:49:06;;;;;;;23.60;14.23;;;0.80;99.90;;;;;;5049070;28;20028;-79
2021/12/13 06:52:11;;;;;;;23.17;14.02;;;0.70;99.90;;;;;;5048721;28;20365;-79
2021/12/13 06:54:55;;;;;;;29.48;14.48;;;0.80;99.90;;;;;;5045892;28;20048;-78
2021/12/13 06:57:30;;;;;;;25.60;14.43;;;0.70;99.90;;;;;;5027101;28;20030;-79
2021/12/13 07:00:10;;;;;;;29.75;15.32;;;0.80;99.90;;;;;;5047635;28;20029;-79
2021/12/13 07:02:53;;;;;;;26.50;13.75;;;-1.20;99.90;;;;;;5048497;28;20676;-79
2021/12/13 07:05:28;;;;;;;25.00;14.48;;;0.90;99.90;;;;;;5047159;28;20029;-79
2021/12/13 07:08:11;;;;;;;32.05;16.13;;;0.90;99.90;;;;;;5046152;28;20523;-80
2021/12/13 07:11:00;;;;;;;28.40;15.68;;;0.90;99.90;;;;;;5032341;28;20025;-78
2021/12/13 07:13:33;;;;;;;26.02;14.88;;;0.90;99.90;;;;;;4967506;28;20042;-79
2021/12/13 07:16:40;;;;;;;23.70;13.32;;;1.00;99.90;;;;;;4967136;28;20099;-77
2021/12/13 07:19:24;;;;;;;26.13;13.95;;;1.00;99.90;;;;;;4917823;29;20099;-79
2021/12/13 07:21:55;;;;;;;19.58;12.13;;;1.00;99.90;;;;;;4918425;29;20028;-79
2021/12/13 07:24:33;;;;;;;26.95;14.02;;;1.00;99.90;;;;;;4913886;29;20071;-79
2021/12/13 07:27:07;;;;;;;24.67;14.13;;;0.90;99.90;;;;;;4910599;29;20548;-79
2021/12/13 07:30:06;;;;;;;24.58;13.60;;;1.00;99.90;;;;;;4907599;29;20669;-79
2021/12/13 07:32:37;;;;;;;23.67;13.35;;;1.00;99.90;;;;;;4850251;29;20034;-77
2021/12/13 07:35:08;;;;;;;25.83;12.93;;;1.00;99.90;;;;;;4851296;29;20121;-79
2021/12/13 07:37:52;;;;;;;22.23;11.77;;;1.10;99.90;;;;;;4853484;29;20462;-79
2021/12/13 07:40:49;;;;;;;20.65;12.55;;;1.10;99.90;;;;;;4859825;29;20045;-78
2021/12/13 07:43:25;;;;;;;22.67;13.15;;;1.00;99.90;;;;;;4832556;29;20380;-79
2021/12/13 07:45:59;;;;;;;23.15;13.52;;;1.00;99.90;;;;;;4831789;29;20066;-77
2021/12/13 07:48:29;;;;;;;23.00;13.18;;;1.00;99.90;;;;;;4830876;29;20034;-79
2021/12/13 07:51:10;;;;;;;20.75;12.32;;;0.10;99.90;;;;;;4894000;29;20068;-78
2021/12/13 07:54:13;;;;;;;21.70;10.93;;;1.00;99.60;;;;;;4909871;29;20104;-78
2021/12/13 07:56:58;;;;;;;22.60;11.82;;;1.00;99.40;;;;;;4848419;29;20128;-78
2021/12/13 07:59:24;;;;;;;28.88;14.38;;;1.10;99.60;;;;;;4848911;29;20060;-77
2021/12/13 08:02:07;;;;;;;27.17;15.32;;;1.80;99.90;;;;;;4848747;29;20639;-80
2021/12/13 08:04:49;;;;;;;34.65;16.95;;;1.20;99.80;;;;;;4848185;29;20046;-79
2021/12/13 08:07:17;;;;;;;29.45;15.88;;;1.20;99.90;;;;;;4848367;29;20033;-79
2021/12/13 08:09:50;;;;;;;29.30;16.77;;;1.70;99.90;;;;;;4890259;29;20718;-79
2021/12/13 08:12:26;;;;;;;33.67;17.77;;;1.30;99.90;;;;;;4921968;29;20024;-79
2021/12/13 08:14:56;;;;;;;31.95;17.83;;;1.30;99.80;;;;;;4924313;29;20122;-79
2021/12/13 08:17:31;;;;;;;34.88;17.30;;;1.40;99.70;;;;;;4924080;29;20024;-79
2021/12/13 08:20:10;;;;;;;29.42;17.33;;;1.40;99.70;;;;;;4939530;28;20091;-79
2021/12/13 08:22:43;;;;;;;28.58;16.02;;;1.60;99.60;;;;;;4962252;28;20440;-79
2021/12/13 08:25:15;;;;;;;30.02;15.98;;;1.70;99.30;;;;;;4959008;28;20762;-80
2021/12/13 08:27:48;;;;;;;26.88;14.48;;;1.70;98.90;;;;;;4960041;28;20031;-79
2021/12/13 08:30:27;;;;;;;29.52;15.50;;;2.30;98.60;;;;;;4959318;28;20035;-79
2021/12/13 08:32:57;;;;;;;23.65;13.65;;;1.80;98.10;;;;;;4980687;28;20035;-78
2021/12/13 08:35:23;;;;;;;27.90;14.77;;;1.80;98.00;;;;;;5040654;28;20710;-79
2021/12/13 08:37:59;;;;;;;24.45;12.35;;;2.20;98.40;;;;;;5041919;28;20020;-78
2021/12/13 08:40:31;;;;;;;24.92;11.88;;;1.80;97.50;;;;;;5042071;28;20330;-78
2021/12/13 08:42:58;;;;;;;51.00;25.15;;;1.90;97.20;;;;;;5026601;28;20644;-77
2021/12/13 08:45:38;;;;;;;26.40;14.30;;;1.90;97.10;;;;;;5041547;28;20033;-78
2021/12/13 08:48:15;;;;;;;31.65;17.25;;;1.50;97.70;;;;;;5040752;28;20025;-77
2021/12/13 08:50:49;;;;;;;39.80;19.05;;;3.60;98.60;;;;;;5041424;28;20070;-78
2021/12/13 08:53:24;;;;;;;33.95;18.45;;;1.50;98.20;;;;;;5042797;28;20083;-79
2021/12/13 08:56:01;;;;;;;29.38;15.57;;;1.70;98.10;;;;;;5043381;28;20079;-79
2021/12/13 08:58:28;;;;;;;31.38;16.13;;;1.70;97.60;;;;;;5043178;28;20074;-78
2021/12/13 09:00:59;;;;;;;29.15;16.15;;;1.80;97.40;;;;;;5042730;28;20021;-79
2021/12/13 09:03:50;;;;;;;27.90;14.85;;;1.90;97.20;;;;;;5027953;28;20496;-78
2021/12/13 09:06:18;;;;;;;27.77;14.40;;;2.00;97.00;;;;;;5046046;28;20076;-76
2021/12/13 09:08:52;;;;;;;30.08;15.32;;;2.00;96.40;;;;;;5048587;28;20032;-78
2021/12/13 09:11:38;;;;;;;31.95;15.52;;;2.10;96.40;;;;;;5048528;28;20041;-78
2021/12/13 09:14:11;;;;;;;28.67;14.80;;;3.20;96.40;;;;;;5048487;28;20021;-79
2021/12/13 09:17:10;;;;;;;30.20;15.68;;;1.90;96.10;;;;;;5032124;28;20474;-79
2021/12/13 09:19:48;;;;;;;36.35;17.95;;;1.90;96.20;;;;;;5057796;28;20094;-77
2021/12/13 09:22:19;;;;;;;27.55;14.23;;;2.10;96.50;;;;;;5040182;28;20028;-79
2021/12/13 09:24:54;;;;;;;26.88;14.65;;;2.10;96.20;;;;;;5057436;28;20025;-81
2021/12/13 09:27:41;;;;;;;25.80;12.73;;;2.30;96.00;;;;;;5059711;28;20044;-78
2021/12/13 09:30:20;;;;;;;30.63;14.02;;;2.30;95.40;;;;;;5033740;28;20083;-77
2021/12/13 09:32:53;;;;;;;32.33;15.57;;;2.30;95.60;;;;;;5056001;28;20025;-78
2021/12/13 09:35:36;;;;;;;34.42;16.50;;;2.40;95.90;;;;;;5058610;28;20029;-79
2021/12/13 09:38:17;;;;;;;37.05;18.33;;;2.40;95.70;;;;;;5058103;28;20036;-78
2021/12/13 09:40:45;;;;;;;55.40;22.90;;;2.30;95.50;;;;;;5052560;28;20041;-77
2021/12/13 09:43:13;;;;;;;35.60;16.92;;;2.60;95.40;;;;;;5051880;28;20038;-80
2021/12/13 09:45:48;;;;;;;34.20;17.10;;;2.20;95.30;;;;;;5053463;28;20025;-77
2021/12/13 09:48:27;;;;;;;36.72;17.65;;;2.20;95.30;;;;;;5057697;28;20017;-77
2021/12/13 09:50:59;;;;;;;43.38;20.48;;;2.30;95.00;;;;;;5058067;28;20017;-78
2021/12/13 09:53:31;;;;;;;38.92;18.63;;;2.30;94.90;;;;;;5061183;28;20052;-80
2021/12/13 09:56:00;;;;;;;65.32;27.30;;;2.50;95.00;;;;;;5053071;28;20021;-75
2021/12/13 09:58:36;;;;;;;67.22;26.15;;;2.50;95.00;;;;;;5059735;28;20082;-76
2021/12/13 10:01:16;;;;;;;28.00;13.52;;;2.60;94.80;;;;;;5051804;28;20214;-75
2021/12/13 10:03:48;;;;;;;31.15;14.95;;;2.60;94.10;;;;;;5042821;28;20029;-75
2021/12/13 10:06:16;;;;;;;25.83;14.05;;;2.70;94.30;;;;;;5041695;28;20048;-76
2021/12/13 10:09:03;;;;;;;27.17;13.27;;;2.80;93.60;;;;;;5044249;28;20032;-77
2021/12/13 10:11:37;;;;;;;22.38;11.38;;;2.80;93.70;;;;;;5043721;28;20116;-75
2021/12/13 10:14:06;;;;;;;23.05;13.35;;;2.80;93.20;;;;;;5046143;28;20108;-77
2021/12/13 10:16:35;;;;;;;22.48;12.43;;;2.80;93.10;;;;;;5048787;28;20021;-76
2021/12/13 10:19:03;;;;;;;24.52;12.68;;;2.90;93.20;;;;;;5044162;28;20024;-79
2021/12/13 10:21:43;;;;;;;23.67;13.05;;;2.90;93.20;;;;;;5046453;28;20047;-77
2021/12/13 10:24:24;;;;;;;24.25;13.77;;;2.80;93.40;;;;;;5051933;28;20029;-76
2021/12/13 10:26:52;;;;;;;29.25;14.60;;;3.00;93.50;;;;;;5051712;28;20032;-77
2021/12/13 10:29:19;;;;;;;26.10;13.88;;;3.00;93.00;;;;;;5054940;28;20025;-78
2021/12/13 10:31:53;;;;;;;26.17;14.52;;;3.00;92.40;;;;;;5057199;28;20025;-78
2021/12/13 10:34:24;;;;;;;30.63;17.63;;;3.10;92.70;;;;;;5056267;28;20446;-75
2021/12/13 10:37:00;;;;;;;35.00;17.75;;;3.10;92.90;;;;;;5060573;28;20025;-76
2021/12/13 10:39:31;;;;;;;29.20;16.15;;;3.20;92.70;;;;;;5061165;28;20033;-77
2021/12/13 10:42:04;;;;;;;31.60;16.80;;;3.50;92.70;;;;;;5061791;28;20499;-76
2021/12/13 10:44:33;;;;;;;33.75;16.50;;;3.70;92.70;;;;;;5061214;28;20024;-77
2021/12/13 10:47:05;;;;;;;36.38;16.38;;;3.60;91.40;;;;;;5040944;28;20025;-79
2021/12/13 10:49:35;;;;;;;32.67;16.38;;;3.80;91.20;;;;;;5059682;28;20025;-81
2021/12/13 10:52:17;;;;;;;28.30;16.52;;;3.90;91.30;;;;;;5064111;28;20021;-79
2021/12/13 10:54:51;;;;;;;27.73;14.20;;;4.20;90.60;;;;;;5059180;28;20017;-80
2021/12/13 10:57:22;;;;;;;23.63;11.75;;;2.70;89.10;;;;;;5050641;28;20017;-83
2021/12/13 10:59:49;;;;;;;21.52;12.20;;;4.60;85.90;;;;;;5043744;28;20029;-79
2021/12/13 11:02:27;;;;;;;22.90;12.20;;;4.40;87.90;;;;;;5055109;28;20025;-79
2021/12/13 11:05:15;;;;;;;20.75;11.07;;;4.50;88.30;;;;;;5036642;28;20124;-77
2021/12/13 11:07:42;;;;;;;25.60;11.65;;;4.00;88.90;;;;;;5054565;28;20132;-79
2021/12/13 11:10:13;;;;;;;21.35;10.45;;;3.70;88.90;;;;;;5057649;28;20029;-78
2021/12/13 11:12:46;;;;;;;23.98;12.05;;;3.60;90.10;;;;;;5054992;28;20021;-80
2021/12/13 11:15:20;;;;;;;25.50;13.45;;;3.60;90.70;;;;;;5043769;28;20017;-79
2021/12/13 11:17:46;;;;;;;27.27;14.18;;;3.50;90.40;;;;;;5057427;28;20025;-78
2021/12/13 11:20:37;;;;;;;20.65;11.30;;;3.20;91.00;;;;;;5047405;28;20022;-79
2021/12/13 11:23:04;;;;;;;15.95;9.18;;;3.30;91.10;;;;;;5061473;28;20027;-79
2021/12/13 11:25:43;;;;;;;23.17;11.05;;;3.10;90.30;;;;;;5058949;28;20092;-79
2021/12/13 11:28:11;;;;;;;19.52;10.63;;;3.40;90.90;;;;;;5051553;28;20017;-79
2021/12/13 11:30:42;;;;;;;28.90;13.07;;;3.80;90.50;;;;;;5054598;28;20085;-78
2021/12/13 11:33:16;;;;;;;82.63;34.42;;;3.60;89.70;;;;;;5054793;28;20024;-79
2021/12/13 11:36:07;;;;;;;19.05;9.88;;;3.50;90.70;;;;;;5051776;28;20086;-79
2021/12/13 11:39:11;;;;;;;18.40;8.80;;;3.80;89.60;;;;;;5035306;28;20063;-79
2021/12/13 11:42:06;;;;;;;22.00;10.05;;;3.70;89.90;;;;;;5054247;28;20071;-79
2021/12/13 11:44:49;;;;;;;38.22;20.27;;;3.90;89.40;;;;;;5055254;28;20029;-79
2021/12/13 11:47:54;;;;;;;163.95;72.85;;;4.10;89.00;;;;;;5054627;28;20053;-77
2021/12/13 11:50:36;;;;;;;22.05;10.55;;;4.00;88.80;;;;;;5052498;28;20036;-79
2021/12/13 11:54:09;;;;;;;64.57;28.63;;;3.80;90.30;;;;;;5053467;28;20025;-77
2021/12/13 11:56:53;;;;;;;35.67;17.35;;;4.00;90.80;;;;;;4952636;28;20032;-75
2021/12/13 12:00:08;;;;;;;24.52;12.45;;;4.10;89.70;;;;;;4954938;28;20058;-78
2021/12/13 12:03:20;;;;;;;18.00;10.43;;;3.60;89.90;;;;;;4900869;29;20041;-78
2021/12/13 12:06:16;;;;;;;61.80;29.25;;;3.60;90.60;;;;;;4896040;29;20041;-78
2021/12/13 12:09:12;;;;;;;45.38;21.60;;;3.80;90.60;;;;;;4900023;29;20033;-78
2021/12/13 12:11:58;;;;;;;31.13;15.80;;;3.90;90.50;;;;;;4894278;29;20033;-78
2021/12/13 12:14:28;;;;;;;34.10;17.42;;;4.00;90.70;;;;;;4892176;29;20538;-80
2021/12/13 12:16:58;;;;;;;35.90;18.08;;;4.10;90.60;;;;;;4896250;29;20033;-78
2021/12/13 12:19:27;;;;;;;29.83;17.10;;;4.20;90.70;;;;;;4894182;29;20112;-77
2021/12/13 12:21:59;;;;;;;31.38;16.65;;;4.30;90.80;;;;;;4898488;29;20092;-77
2021/12/13 12:24:25;;;;;;;28.58;14.60;;;4.30;90.60;;;;;;4896657;29;20052;-76
2021/12/13 12:27:30;;;;;;;26.23;13.65;;;4.30;90.10;;;;;;4912786;29;20028;-77
2021/12/13 12:30:21;;;;;;;28.42;13.85;;;4.40;90.00;;;;;;4937070;29;20036;-76
2021/12/13 12:32:54;;;;;;;44.40;23.95;;;4.40;90.30;;;;;;4951607;29;20050;-78
2021/12/13 12:35:42;;;;;;;30.80;15.18;;;4.20;90.30;;;;;;4960570;28;20030;-77
2021/12/13 12:38:36;;;;;;;32.50;18.63;;;4.00;90.10;;;;;;5040826;28;20029;-77
2021/12/13 12:41:16;;;;;;;37.40;19.25;;;4.10;90.30;;;;;;5054856;28;20029;-78
2021/12/13 12:43:52;;;;;;;39.78;20.90;;;4.20;90.90;;;;;;5061576;28;20102;-79
2021/12/13 12:46:28;;;;;;;27.13;15.00;;;4.20;91.00;;;;;;5051125;28;20029;-80
2021/12/13 12:49:01;;;;;;;32.60;16.52;;;4.20;90.50;;;;;;5050885;28;20037;-78
2021/12/13 12:51:33;;;;;;;38.88;18.70;;;4.20;90.10;;;;;;5063417;28;20047;-77
2021/12/13 12:54:14;;;;;;;37.63;18.70;;;4.20;90.20;;;;;;5056296;28;20100;-78
2021/12/13 12:56:58;;;;;;;33.03;18.77;;;4.20;90.40;;;;;;5062077;28;20017;-78
2021/12/13 12:59:36;;;;;;;37.20;18.70;;;4.20;90.90;;;;;;5060623;28;20025;-77
2021/12/13 13:02:31;;;;;;;34.95;18.38;;;4.30;90.90;;;;;;5060145;28;20041;-77
2021/12/13 13:04:58;;;;;;;33.88;16.85;;;4.30;90.40;;;;;;5060510;28;20025;-77
2021/12/13 13:07:42;;;;;;;31.30;17.50;;;4.30;90.70;;;;;;5044511;28;20113;-77
2021/12/13 13:13:12;;;;;;;35.47;19.52;;;4.20;90.90;;;;;;5066392;28;20032;-78
2021/12/13 13:15:45;;;;;;;36.00;18.98;;;4.20;90.90;;;;;;5066750;28;20077;-77
2021/12/13 13:18:20;;;;;;;35.67;18.02;;;4.10;90.80;;;;;;5047848;28;20666;-79
2021/12/13 13:20:54;;;;;;;33.97;18.05;;;4.10;90.80;;;;;;5060169;28;20256;-77
2021/12/13 13:23:24;;;;;;;33.95;18.95;;;4.20;90.90;;;;;;5055484;28;20048;-74
2021/12/13 13:26:17;;;;;;;35.20;18.98;;;4.20;91.00;;;;;;5027479;28;20033;-76
2021/12/13 13:28:56;;;;;;;39.88;21.77;;;4.20;91.40;;;;;;5063674;28;20029;-77
2021/12/13 13:31:37;;;;;;;43.47;21.17;;;4.20;91.30;;;;;;5057874;28;20031;-77
2021/12/13 13:34:06;;;;;;;43.40;22.15;;;4.20;91.60;;;;;;5056624;28;20055;-78
2021/12/13 13:36:42;;;;;;;42.55;21.63;;;4.10;91.80;;;;;;5061083;28;20021;-77
2021/12/13 13:39:42;;;;;;;28.97;16.07;;;4.10;91.10;;;;;;5041284;28;20036;-77
2021/12/13 13:42:32;;;;;;;38.72;19.75;;;4.00;91.60;;;;;;5047617;28;20013;-77